PABI/DJN METAR and TAF weather

Enter ICAO airport designator
Station Type Date Time Source
PABI METAR 2018/12/19 02:53 UTC NOAA

PABI 190253Z 27005KT 4SM BR FEW007 OVC010 M18/M19 A2930 RMK AO2 SNB0155E44 SLP976 P0000 60000 I3001 T11831194 51002


Station Type Date Time Source
PABI Decoded METAR 2018/12/19 02:53 UTC NOAA

ALLEN ARMY AIRFIELD, AK, United States (PABI) 64-00N 145-43W 391M
Dec 18, 2018 - 09:53 PM EST / 2018.12.19 0253 UTC
Wind: from the W (270 degrees) at 6 MPH (5 KT):0
Visibility: 4 mile(s):0
Sky conditions: overcast
Weather: mist
Precipitation last hour: A trace
Temperature: -0.9 F (-18.3 C)
Windchill: -13 F (-25 C):2
Dew Point: -2.9 F (-19.4 C)
Relative Humidity: 91%
Pressure (altimeter): 29.3 in. Hg (992 hPa)
Pressure tendency: 0.01 inches (0.2 hPa) higher than three hours ago
ob: PABI 190253Z 27005KT 4SM BR FEW007 OVC010 M18/M19 A2930 RMK AO2 SNB0155E44 SLP976 P0000 60000 I3001 T11831194 51002
cycle: 3

Station Type Date Time Source
PABI TAF 2018/12/19 23:00 UTC NOAA

TAF
AMD PABI 182352Z 1823/2004 28006KT 4000 -SN BR FEW008 OVC014 620145 QNH2928INS
TEMPO 1823/1904 3200 -SN BR BKN008 620085 TXM16/1904Z TNM21/1922Z


Example: see airport list